sensor_id;sensor_type;location;lat;lon;timestamp;temperature;humidity
58447;DHT22;44240;51.840;7.258;2023-02-21T00:01:08;10.80;82.60
58447;DHT22;44240;51.840;7.258;2023-02-21T00:03:52;10.80;82.50
58447;DHT22;44240;51.840;7.258;2023-02-21T00:06:36;10.80;82.50
58447;DHT22;44240;51.840;7.258;2023-02-21T00:09:20;10.80;82.40
58447;DHT22;44240;51.840;7.258;2023-02-21T00:12:04;10.80;82.40
58447;DHT22;44240;51.840;7.258;2023-02-21T00:14:48;10.70;82.60
58447;DHT22;44240;51.840;7.258;2023-02-21T00:17:32;10.70;82.80
58447;DHT22;44240;51.840;7.258;2023-02-21T00:20:16;10.70;82.70
58447;DHT22;44240;51.840;7.258;2023-02-21T00:23:00;10.70;82.80
58447;DHT22;44240;51.840;7.258;2023-02-21T00:25:44;10.70;83.00
58447;DHT22;44240;51.840;7.258;2023-02-21T00:28:31;10.70;82.90
58447;DHT22;44240;51.840;7.258;2023-02-21T00:31:17;10.70;82.90
58447;DHT22;44240;51.840;7.258;2023-02-21T00:34:02;10.70;82.90
58447;DHT22;44240;51.840;7.258;2023-02-21T00:36:46;10.60;83.10
58447;DHT22;44240;51.840;7.258;2023-02-21T00:39:30;10.60;83.00
58447;DHT22;44240;51.840;7.258;2023-02-21T00:42:14;10.60;83.20
58447;DHT22;44240;51.840;7.258;2023-02-21T00:44:58;10.70;83.10
58447;DHT22;44240;51.840;7.258;2023-02-21T00:47:42;10.70;83.00
58447;DHT22;44240;51.840;7.258;2023-02-21T00:50:26;10.70;83.00
58447;DHT22;44240;51.840;7.258;2023-02-21T00:53:10;10.70;83.00
58447;DHT22;44240;51.840;7.258;2023-02-21T00:55:54;10.70;83.00
58447;DHT22;44240;51.840;7.258;2023-02-21T00:58:38;10.70;83.00
58447;DHT22;44240;51.840;7.258;2023-02-21T01:01:22;10.70;83.10
58447;DHT22;44240;51.840;7.258;2023-02-21T01:04:06;10.70;83.20
58447;DHT22;44240;51.840;7.258;2023-02-21T01:06:50;10.70;83.10
58447;DHT22;44240;51.840;7.258;2023-02-21T01:09:34;10.70;83.10
58447;DHT22;44240;51.840;7.258;2023-02-21T01:12:18;10.70;83.20
58447;DHT22;44240;51.840;7.258;2023-02-21T01:15:03;10.70;83.20
58447;DHT22;44240;51.840;7.258;2023-02-21T01:17:47;10.70;83.30
58447;DHT22;44240;51.840;7.258;2023-02-21T01:20:31;10.60;83.40
58447;DHT22;44240;51.840;7.258;2023-02-21T01:23:15;10.70;83.50
58447;DHT22;44240;51.840;7.258;2023-02-21T01:25:59;10.70;84.40
58447;DHT22;44240;51.840;7.258;2023-02-21T01:28:43;10.70;83.20
58447;DHT22;44240;51.840;7.258;2023-02-21T01:31:29;10.70;83.00
58447;DHT22;44240;51.840;7.258;2023-02-21T01:34:13;10.70;83.20
58447;DHT22;44240;51.840;7.258;2023-02-21T01:36:57;10.70;83.20
58447;DHT22;44240;51.840;7.258;2023-02-21T01:39:41;10.60;83.20
58447;DHT22;44240;51.840;7.258;2023-02-21T01:42:25;10.60;83.30
58447;DHT22;44240;51.840;7.258;2023-02-21T01:48:13;10.70;83.20
58447;DHT22;44240;51.840;7.258;2023-02-21T01:50:59;10.70;83.20
58447;DHT22;44240;51.840;7.258;2023-02-21T01:53:45;10.70;83.30
58447;DHT22;44240;51.840;7.258;2023-02-21T01:56:30;10.70;83.30
58447;DHT22;44240;51.840;7.258;2023-02-21T01:59:16;10.70;84.40
58447;DHT22;44240;51.840;7.258;2023-02-21T02:02:28;10.60;83.40
58447;DHT22;44240;51.840;7.258;2023-02-21T02:05:13;10.60;83.60
58447;DHT22;44240;51.840;7.258;2023-02-21T02:07:57;10.60;84.80
58447;DHT22;44240;51.840;7.258;2023-02-21T02:10:42;10.70;83.60
58447;DHT22;44240;51.840;7.258;2023-02-21T02:13:46;10.70;83.60
58447;DHT22;44240;51.840;7.258;2023-02-21T02:19:05;10.70;83.60
58447;DHT22;44240;51.840;7.258;2023-02-21T02:35:35;10.70;83.70
58447;DHT22;44240;51.840;7.258;2023-02-21T02:40:50;10.70;83.70
58447;DHT22;44240;51.840;7.258;2023-02-21T02:43:20;10.70;83.90
58447;DHT22;44240;51.840;7.258;2023-02-21T02:45:54;10.70;83.80
58447;DHT22;44240;51.840;7.258;2023-02-21T02:48:35;10.70;83.70
58447;DHT22;44240;51.840;7.258;2023-02-21T02:51:06;10.70;83.70
58447;DHT22;44240;51.840;7.258;2023-02-21T02:53:32;10.60;83.80
58447;DHT22;44240;51.840;7.258;2023-02-21T02:56:02;10.60;83.90
58447;DHT22;44240;51.840;7.258;2023-02-21T02:58:39;10.60;84.10
58447;DHT22;44240;51.840;7.258;2023-02-21T03:01:35;10.60;85.10
58447;DHT22;44240;51.840;7.258;2023-02-21T03:12:56;10.60;84.40
58447;DHT22;44240;51.840;7.258;2023-02-21T03:15:46;10.60;84.20
58447;DHT22;44240;51.840;7.258;2023-02-21T03:18:30;10.60;84.10
58447;DHT22;44240;51.840;7.258;2023-02-21T03:20:58;10.70;84.30
58447;DHT22;44240;51.840;7.258;2023-02-21T03:23:27;10.60;84.10
58447;DHT22;44240;51.840;7.258;2023-02-21T03:25:58;10.60;84.30
58447;DHT22;44240;51.840;7.258;2023-02-21T03:28:24;10.60;84.10
58447;DHT22;44240;51.840;7.258;2023-02-21T03:30:52;10.60;84.10
58447;DHT22;44240;51.840;7.258;2023-02-21T03:33:20;10.60;84.20
58447;DHT22;44240;51.840;7.258;2023-02-21T03:35:46;10.60;84.20
58447;DHT22;44240;51.840;7.258;2023-02-21T03:38:12;10.60;84.10
58447;DHT22;44240;51.840;7.258;2023-02-21T03:40:37;10.60;84.00
58447;DHT22;44240;51.840;7.258;2023-02-21T03:43:04;10.60;83.90
58447;DHT22;44240;51.840;7.258;2023-02-21T03:45:32;10.60;83.70
58447;DHT22;44240;51.840;7.258;2023-02-21T03:47:58;10.60;83.90
58447;DHT22;44240;51.840;7.258;2023-02-21T03:50:23;10.60;84.00
58447;DHT22;44240;51.840;7.258;2023-02-21T03:52:49;10.60;84.10
58447;DHT22;44240;51.840;7.258;2023-02-21T03:55:15;10.50;84.30
58447;DHT22;44240;51.840;7.258;2023-02-21T03:57:40;10.50;84.40
58447;DHT22;44240;51.840;7.258;2023-02-21T04:00:06;10.50;84.30
58447;DHT22;44240;51.840;7.258;2023-02-21T04:02:32;10.50;84.30
58447;DHT22;44240;51.840;7.258;2023-02-21T04:04:58;10.50;84.40
58447;DHT22;44240;51.840;7.258;2023-02-21T04:07:24;10.50;84.40
58447;DHT22;44240;51.840;7.258;2023-02-21T04:09:50;10.50;84.40
58447;DHT22;44240;51.840;7.258;2023-02-21T04:12:15;10.40;84.60
58447;DHT22;44240;51.840;7.258;2023-02-21T04:14:41;10.40;84.60
58447;DHT22;44240;51.840;7.258;2023-02-21T04:17:07;10.40;84.60
58447;DHT22;44240;51.840;7.258;2023-02-21T04:19:32;10.40;84.90
58447;DHT22;44240;51.840;7.258;2023-02-21T04:21:58;10.40;84.80
58447;DHT22;44240;51.840;7.258;2023-02-21T04:24:23;10.40;84.70
58447;DHT22;44240;51.840;7.258;2023-02-21T04:26:49;10.40;84.80
58447;DHT22;44240;51.840;7.258;2023-02-21T04:29:14;10.40;84.90
58447;DHT22;44240;51.840;7.258;2023-02-21T04:31:40;10.40;84.90
58447;DHT22;44240;51.840;7.258;2023-02-21T04:34:05;10.50;84.80
58447;DHT22;44240;51.840;7.258;2023-02-21T04:36:31;10.40;84.80
58447;DHT22;44240;51.840;7.258;2023-02-21T04:38:56;10.40;84.80
58447;DHT22;44240;51.840;7.258;2023-02-21T04:41:22;10.40;84.90
58447;DHT22;44240;51.840;7.258;2023-02-21T04:43:48;10.40;84.90
58447;DHT22;44240;51.840;7.258;2023-02-21T04:46:15;10.40;85.50
58447;DHT22;44240;51.840;7.258;2023-02-21T04:48:46;10.40;85.00
58447;DHT22;44240;51.840;7.258;2023-02-21T04:51:13;10.40;85.10
58447;DHT22;44240;51.840;7.258;2023-02-21T04:53:40;10.30;85.10
58447;DHT22;44240;51.840;7.258;2023-02-21T04:56:05;10.40;85.20
58447;DHT22;44240;51.840;7.258;2023-02-21T04:58:31;10.30;85.30
58447;DHT22;44240;51.840;7.258;2023-02-21T05:00:57;10.40;85.30
58447;DHT22;44240;51.840;7.258;2023-02-21T05:03:22;10.40;85.20
58447;DHT22;44240;51.840;7.258;2023-02-21T05:05:49;10.40;85.20
58447;DHT22;44240;51.840;7.258;2023-02-21T05:08:14;10.40;85.10
58447;DHT22;44240;51.840;7.258;2023-02-21T05:10:40;10.40;85.20
58447;DHT22;44240;51.840;7.258;2023-02-21T05:13:05;10.40;85.10
58447;DHT22;44240;51.840;7.258;2023-02-21T05:15:31;10.40;85.00
58447;DHT22;44240;51.840;7.258;2023-02-21T05:17:56;10.40;85.10
58447;DHT22;44240;51.840;7.258;2023-02-21T05:20:22;10.30;85.20
58447;DHT22;44240;51.840;7.258;2023-02-21T05:22:48;10.40;85.40
58447;DHT22;44240;51.840;7.258;2023-02-21T05:25:19;10.30;85.50
58447;DHT22;44240;51.840;7.258;2023-02-21T05:27:45;10.30;85.50
58447;DHT22;44240;51.840;7.258;2023-02-21T05:30:13;10.40;85.40
58447;DHT22;44240;51.840;7.258;2023-02-21T05:32:39;10.40;85.30
58447;DHT22;44240;51.840;7.258;2023-02-21T05:35:06;10.40;85.20
58447;DHT22;44240;51.840;7.258;2023-02-21T05:37:32;10.40;85.30
58447;DHT22;44240;51.840;7.258;2023-02-21T05:39:58;10.40;85.30
58447;DHT22;44240;51.840;7.258;2023-02-21T05:42:23;10.40;85.50
58447;DHT22;44240;51.840;7.258;2023-02-21T05:44:49;10.40;85.50
58447;DHT22;44240;51.840;7.258;2023-02-21T05:47:15;10.40;85.30
58447;DHT22;44240;51.840;7.258;2023-02-21T05:49:41;10.30;85.30
58447;DHT22;44240;51.840;7.258;2023-02-21T05:52:10;10.30;85.40
58447;DHT22;44240;51.840;7.258;2023-02-21T05:54:36;10.30;85.50
58447;DHT22;44240;51.840;7.258;2023-02-21T05:57:02;10.30;85.60
58447;DHT22;44240;51.840;7.258;2023-02-21T05:59:27;10.30;85.80
58447;DHT22;44240;51.840;7.258;2023-02-21T06:01:53;10.30;85.80
58447;DHT22;44240;51.840;7.258;2023-02-21T06:04:19;10.30;85.80
58447;DHT22;44240;51.840;7.258;2023-02-21T06:06:45;10.30;85.80
58447;DHT22;44240;51.840;7.258;2023-02-21T06:09:11;10.30;85.80
58447;DHT22;44240;51.840;7.258;2023-02-21T06:11:38;10.30;85.70
58447;DHT22;44240;51.840;7.258;2023-02-21T06:14:07;10.30;85.60
58447;DHT22;44240;51.840;7.258;2023-02-21T06:16:34;10.30;86.70
58447;DHT22;44240;51.840;7.258;2023-02-21T06:19:01;10.30;85.70
58447;DHT22;44240;51.840;7.258;2023-02-21T06:21:26;10.30;85.70
58447;DHT22;44240;51.840;7.258;2023-02-21T06:23:52;10.30;85.90
58447;DHT22;44240;51.840;7.258;2023-02-21T06:26:19;10.30;85.90
58447;DHT22;44240;51.840;7.258;2023-02-21T06:28:45;10.20;86.00
58447;DHT22;44240;51.840;7.258;2023-02-21T06:31:10;10.20;86.00
58447;DHT22;44240;51.840;7.258;2023-02-21T06:33:36;10.20;86.00
58447;DHT22;44240;51.840;7.258;2023-02-21T06:36:06;10.20;86.10
58447;DHT22;44240;51.840;7.258;2023-02-21T06:38:33;10.20;86.10
58447;DHT22;44240;51.840;7.258;2023-02-21T06:40:59;10.20;86.10
58447;DHT22;44240;51.840;7.258;2023-02-21T06:43:25;10.30;86.10
58447;DHT22;44240;51.840;7.258;2023-02-21T06:45:51;10.30;86.00
58447;DHT22;44240;51.840;7.258;2023-02-21T06:48:16;10.30;85.80
58447;DHT22;44240;51.840;7.258;2023-02-21T06:50:42;10.20;85.90
58447;DHT22;44240;51.840;7.258;2023-02-21T06:53:08;10.20;85.90
58447;DHT22;44240;51.840;7.258;2023-02-21T06:55:33;10.20;86.00
58447;DHT22;44240;51.840;7.258;2023-02-21T06:57:59;10.20;86.10
58447;DHT22;44240;51.840;7.258;2023-02-21T07:00:24;10.30;86.00
58447;DHT22;44240;51.840;7.258;2023-02-21T07:02:51;10.30;85.90
58447;DHT22;44240;51.840;7.258;2023-02-21T07:05:17;10.20;85.90
58447;DHT22;44240;51.840;7.258;2023-02-21T07:07:42;10.20;85.90
58447;DHT22;44240;51.840;7.258;2023-02-21T07:10:08;10.20;85.90
58447;DHT22;44240;51.840;7.258;2023-02-21T07:12:33;10.20;86.00
58447;DHT22;44240;51.840;7.258;2023-02-21T07:14:59;10.20;86.00
58447;DHT22;44240;51.840;7.258;2023-02-21T07:17:24;10.20;86.10
58447;DHT22;44240;51.840;7.258;2023-02-21T07:19:50;10.20;86.10
58447;DHT22;44240;51.840;7.258;2023-02-21T07:22:15;10.20;86.10
58447;DHT22;44240;51.840;7.258;2023-02-21T07:24:43;10.20;86.10
58447;DHT22;44240;51.840;7.258;2023-02-21T07:27:08;10.20;86.20
58447;DHT22;44240;51.840;7.258;2023-02-21T07:29:34;10.10;86.10
58447;DHT22;44240;51.840;7.258;2023-02-21T07:31:59;10.10;86.40
58447;DHT22;44240;51.840;7.258;2023-02-21T07:34:25;10.10;86.30
58447;DHT22;44240;51.840;7.258;2023-02-21T07:36:51;10.10;86.40
58447;DHT22;44240;51.840;7.258;2023-02-21T07:39:16;10.00;86.50
58447;DHT22;44240;51.840;7.258;2023-02-21T07:41:42;10.00;86.90
58447;DHT22;44240;51.840;7.258;2023-02-21T07:44:08;10.00;86.70
58447;DHT22;44240;51.840;7.258;2023-02-21T07:46:34;10.10;86.70
58447;DHT22;44240;51.840;7.258;2023-02-21T07:49:00;10.10;86.70
58447;DHT22;44240;51.840;7.258;2023-02-21T07:51:29;10.10;86.60
58447;DHT22;44240;51.840;7.258;2023-02-21T07:53:55;10.10;86.40
58447;DHT22;44240;51.840;7.258;2023-02-21T07:56:22;10.10;86.10
58447;DHT22;44240;51.840;7.258;2023-02-21T07:58:47;10.10;86.30
58447;DHT22;44240;51.840;7.258;2023-02-21T08:01:14;10.10;86.50
58447;DHT22;44240;51.840;7.258;2023-02-21T08:03:39;10.10;86.50
58447;DHT22;44240;51.840;7.258;2023-02-21T08:06:07;10.10;86.70
58447;DHT22;44240;51.840;7.258;2023-02-21T08:08:33;10.10;86.80
58447;DHT22;44240;51.840;7.258;2023-02-21T08:10:58;10.10;86.70
58447;DHT22;44240;51.840;7.258;2023-02-21T08:13:24;10.10;86.60
58447;DHT22;44240;51.840;7.258;2023-02-21T08:15:49;10.00;86.60
58447;DHT22;44240;51.840;7.258;2023-02-21T08:18:17;10.00;86.70
58447;DHT22;44240;51.840;7.258;2023-02-21T08:20:45;10.00;86.80
58447;DHT22;44240;51.840;7.258;2023-02-21T08:23:11;10.00;87.00
58447;DHT22;44240;51.840;7.258;2023-02-21T08:25:37;10.00;87.00
58447;DHT22;44240;51.840;7.258;2023-02-21T08:28:02;10.00;86.90
58447;DHT22;44240;51.840;7.258;2023-02-21T08:30:28;10.00;87.00
58447;DHT22;44240;51.840;7.258;2023-02-21T08:32:53;10.10;86.80
58447;DHT22;44240;51.840;7.258;2023-02-21T08:35:19;10.10;86.80
58447;DHT22;44240;51.840;7.258;2023-02-21T08:37:47;10.00;86.80
58447;DHT22;44240;51.840;7.258;2023-02-21T08:40:13;10.00;87.00
58447;DHT22;44240;51.840;7.258;2023-02-21T08:42:39;10.00;87.00
58447;DHT22;44240;51.840;7.258;2023-02-21T08:45:05;10.00;87.20
58447;DHT22;44240;51.840;7.258;2023-02-21T08:47:33;10.00;87.10
58447;DHT22;44240;51.840;7.258;2023-02-21T08:50:00;10.00;87.10
58447;DHT22;44240;51.840;7.258;2023-02-21T08:52:25;10.00;87.10
58447;DHT22;44240;51.840;7.258;2023-02-21T08:54:51;10.00;87.10
58447;DHT22;44240;51.840;7.258;2023-02-21T08:57:16;10.10;87.20
58447;DHT22;44240;51.840;7.258;2023-02-21T08:59:43;10.10;87.10
58447;DHT22;44240;51.840;7.258;2023-02-21T09:02:17;10.10;87.00
58447;DHT22;44240;51.840;7.258;2023-02-21T09:04:44;10.10;87.10
58447;DHT22;44240;51.840;7.258;2023-02-21T09:07:14;10.10;87.00
58447;DHT22;44240;51.840;7.258;2023-02-21T09:09:40;10.10;87.70
58447;DHT22;44240;51.840;7.258;2023-02-21T09:12:06;10.10;87.20
58447;DHT22;44240;51.840;7.258;2023-02-21T09:14:37;10.10;87.30
58447;DHT22;44240;51.840;7.258;2023-02-21T09:17:04;10.10;87.40
58447;DHT22;44240;51.840;7.258;2023-02-21T09:19:29;10.10;87.50
58447;DHT22;44240;51.840;7.258;2023-02-21T09:21:55;10.00;87.30
58447;DHT22;44240;51.840;7.258;2023-02-21T09:24:22;10.00;87.50
58447;DHT22;44240;51.840;7.258;2023-02-21T09:26:55;10.00;87.50
58447;DHT22;44240;51.840;7.258;2023-02-21T09:29:24;10.10;87.60
58447;DHT22;44240;51.840;7.258;2023-02-21T09:31:51;10.10;87.60
58447;DHT22;44240;51.840;7.258;2023-02-21T09:34:17;10.10;87.50
58447;DHT22;44240;51.840;7.258;2023-02-21T09:36:43;10.10;87.60
58447;DHT22;44240;51.840;7.258;2023-02-21T09:39:09;10.10;87.60
58447;DHT22;44240;51.840;7.258;2023-02-21T09:41:35;10.10;87.50
58447;DHT22;44240;51.840;7.258;2023-02-21T09:44:03;10.10;87.40
58447;DHT22;44240;51.840;7.258;2023-02-21T09:46:42;10.20;87.20
58447;DHT22;44240;51.840;7.258;2023-02-21T09:49:16;10.20;87.40
58447;DHT22;44240;51.840;7.258;2023-02-21T09:51:44;10.20;87.30
58447;DHT22;44240;51.840;7.258;2023-02-21T09:56:48;10.20;87.40
58447;DHT22;44240;51.840;7.258;2023-02-21T09:59:14;10.20;87.20
58447;DHT22;44240;51.840;7.258;2023-02-21T10:01:55;10.20;87.10
58447;DHT22;44240;51.840;7.258;2023-02-21T10:07:32;10.20;87.40
58447;DHT22;44240;51.840;7.258;2023-02-21T10:10:27;10.30;87.40
58447;DHT22;44240;51.840;7.258;2023-02-21T10:15:44;10.30;87.00
58447;DHT22;44240;51.840;7.258;2023-02-21T10:18:40;10.30;88.10
58447;DHT22;44240;51.840;7.258;2023-02-21T10:21:27;10.30;87.10
58447;DHT22;44240;51.840;7.258;2023-02-21T10:23:54;10.40;87.00
58447;DHT22;44240;51.840;7.258;2023-02-21T10:26:27;10.30;87.00
58447;DHT22;44240;51.840;7.258;2023-02-21T10:28:54;10.40;86.90
58447;DHT22;44240;51.840;7.258;2023-02-21T10:31:34;10.40;86.70
58447;DHT22;44240;51.840;7.258;2023-02-21T10:34:02;10.40;86.60
58447;DHT22;44240;51.840;7.258;2023-02-21T10:36:29;10.40;86.70
58447;DHT22;44240;51.840;7.258;2023-02-21T10:39:02;10.40;86.50
58447;DHT22;44240;51.840;7.258;2023-02-21T10:41:29;10.40;86.50
58447;DHT22;44240;51.840;7.258;2023-02-21T10:44:03;10.30;86.70
58447;DHT22;44240;51.840;7.258;2023-02-21T10:46:57;10.40;86.80
58447;DHT22;44240;51.840;7.258;2023-02-21T10:49:38;10.40;86.30
58447;DHT22;44240;51.840;7.258;2023-02-21T10:54:30;10.30;86.70
58447;DHT22;44240;51.840;7.258;2023-02-21T10:56:59;10.40;86.70
58447;DHT22;44240;51.840;7.258;2023-02-21T10:59:37;10.40;86.40
58447;DHT22;44240;51.840;7.258;2023-02-21T11:02:34;10.40;86.20
58447;DHT22;44240;51.840;7.258;2023-02-21T11:05:13;10.40;86.30
58447;DHT22;44240;51.840;7.258;2023-02-21T11:07:41;10.40;86.50
58447;DHT22;44240;51.840;7.258;2023-02-21T11:10:28;10.40;86.50
58447;DHT22;44240;51.840;7.258;2023-02-21T11:15:36;10.40;86.40
58447;DHT22;44240;51.840;7.258;2023-02-21T11:18:16;10.40;86.20
58447;DHT22;44240;51.840;7.258;2023-02-21T11:20:42;10.50;86.20
58447;DHT22;44240;51.840;7.258;2023-02-21T11:23:37;10.50;86.20
58447;DHT22;44240;51.840;7.258;2023-02-21T11:26:09;10.50;85.90
58447;DHT22;44240;51.840;7.258;2023-02-21T11:28:41;10.50;85.70
58447;DHT22;44240;51.840;7.258;2023-02-21T11:31:28;10.50;85.70
58447;DHT22;44240;51.840;7.258;2023-02-21T11:34:06;10.50;85.90
58447;DHT22;44240;51.840;7.258;2023-02-21T11:36:35;10.50;85.90
58447;DHT22;44240;51.840;7.258;2023-02-21T11:39:44;10.50;86.10
58447;DHT22;44240;51.840;7.258;2023-02-21T11:41:56;10.50;85.80
58447;DHT22;44240;51.840;7.258;2023-02-21T11:44:38;10.50;85.60
58447;DHT22;44240;51.840;7.258;2023-02-21T11:47:27;10.50;85.60
58447;DHT22;44240;51.840;7.258;2023-02-21T11:50:20;10.50;86.10
58447;DHT22;44240;51.840;7.258;2023-02-21T11:55:21;10.40;85.60
58447;DHT22;44240;51.840;7.258;2023-02-21T12:00:48;10.50;85.90
58447;DHT22;44240;51.840;7.258;2023-02-21T12:06:50;10.50;85.80
58447;DHT22;44240;51.840;7.258;2023-02-21T12:15:02;10.50;85.60
58447;DHT22;44240;51.840;7.258;2023-02-21T12:17:56;10.50;85.50
58447;DHT22;44240;51.840;7.258;2023-02-21T12:22:57;10.50;85.40
58447;DHT22;44240;51.840;7.258;2023-02-21T12:28:53;10.60;85.00
58447;DHT22;44240;51.840;7.258;2023-02-21T12:36:36;10.60;85.20
58447;DHT22;44240;51.840;7.258;2023-02-21T12:42:10;10.60;85.20
58447;DHT22;44240;51.840;7.258;2023-02-21T12:50:30;10.60;85.10
58447;DHT22;44240;51.840;7.258;2023-02-21T12:53:04;10.60;84.90
58447;DHT22;44240;51.840;7.258;2023-02-21T12:55:39;10.60;85.10
58447;DHT22;44240;51.840;7.258;2023-02-21T12:58:16;10.70;85.10
58447;DHT22;44240;51.840;7.258;2023-02-21T13:00:48;10.70;84.80
58447;DHT22;44240;51.840;7.258;2023-02-21T13:05:57;10.70;84.60
58447;DHT22;44240;51.840;7.258;2023-02-21T13:11:29;10.60;85.10
58447;DHT22;44240;51.840;7.258;2023-02-21T13:13:57;10.60;85.20
58447;DHT22;44240;51.840;7.258;2023-02-21T13:16:24;10.70;85.00
58447;DHT22;44240;51.840;7.258;2023-02-21T13:19:03;10.60;84.90
58447;DHT22;44240;51.840;7.258;2023-02-21T13:24:41;10.70;85.00
58447;DHT22;44240;51.840;7.258;2023-02-21T13:30:33;10.70;84.90
58447;DHT22;44240;51.840;7.258;2023-02-21T13:33:01;10.70;84.90
58447;DHT22;44240;51.840;7.258;2023-02-21T13:35:37;10.70;85.30
58447;DHT22;44240;51.840;7.258;2023-02-21T13:38:05;10.80;85.00
58447;DHT22;44240;51.840;7.258;2023-02-21T13:40:52;10.80;84.80
58447;DHT22;44240;51.840;7.258;2023-02-21T13:43:24;10.90;84.50
58447;DHT22;44240;51.840;7.258;2023-02-21T13:45:50;10.90;84.50
58447;DHT22;44240;51.840;7.258;2023-02-21T13:48:23;10.90;84.50
58447;DHT22;44240;51.840;7.258;2023-02-21T13:50:55;10.90;84.10
58447;DHT22;44240;51.840;7.258;2023-02-21T13:53:25;10.90;84.10
58447;DHT22;44240;51.840;7.258;2023-02-21T14:03:43;11.00;84.40
58447;DHT22;44240;51.840;7.258;2023-02-21T14:08:46;11.10;85.20
58447;DHT22;44240;51.840;7.258;2023-02-21T14:11:20;11.10;83.90
58447;DHT22;44240;51.840;7.258;2023-02-21T14:13:55;11.10;83.90
58447;DHT22;44240;51.840;7.258;2023-02-21T14:16:45;11.10;84.00
58447;DHT22;44240;51.840;7.258;2023-02-21T14:21:48;11.10;83.90
58447;DHT22;44240;51.840;7.258;2023-02-21T14:24:24;11.10;83.90
58447;DHT22;44240;51.840;7.258;2023-02-21T14:29:29;11.10;83.80
58447;DHT22;44240;51.840;7.258;2023-02-21T14:50:45;11.20;83.30
58447;DHT22;44240;51.840;7.258;2023-02-21T14:58:38;11.20;83.60
58447;DHT22;44240;51.840;7.258;2023-02-21T15:03:49;11.30;83.50
58447;DHT22;44240;51.840;7.258;2023-02-21T15:06:20;11.30;83.50
58447;DHT22;44240;51.840;7.258;2023-02-21T15:08:49;11.30;83.30
58447;DHT22;44240;51.840;7.258;2023-02-21T15:11:28;11.30;83.20
58447;DHT22;44240;51.840;7.258;2023-02-21T15:14:18;11.40;83.30
58447;DHT22;44240;51.840;7.258;2023-02-21T15:16:52;11.40;83.00
58447;DHT22;44240;51.840;7.258;2023-02-21T15:19:22;11.40;83.00
58447;DHT22;44240;51.840;7.258;2023-02-21T15:22:19;11.30;83.00
58447;DHT22;44240;51.840;7.258;2023-02-21T15:27:23;11.40;83.10
58447;DHT22;44240;51.840;7.258;2023-02-21T15:30:07;11.40;83.10
58447;DHT22;44240;51.840;7.258;2023-02-21T15:32:38;11.50;83.20
58447;DHT22;44240;51.840;7.258;2023-02-21T15:35:06;11.50;83.10
58447;DHT22;44240;51.840;7.258;2023-02-21T15:37:34;11.50;82.90
58447;DHT22;44240;51.840;7.258;2023-02-21T15:40:05;11.50;83.90
58447;DHT22;44240;51.840;7.258;2023-02-21T15:42:38;11.60;82.80
58447;DHT22;44240;51.840;7.258;2023-02-21T15:45:15;11.50;82.60
58447;DHT22;44240;51.840;7.258;2023-02-21T15:47:42;11.60;82.70
58447;DHT22;44240;51.840;7.258;2023-02-21T15:50:17;11.60;82.70
58447;DHT22;44240;51.840;7.258;2023-02-21T15:52:49;11.60;82.60
58447;DHT22;44240;51.840;7.258;2023-02-21T16:00:37;11.70;82.50
58447;DHT22;44240;51.840;7.258;2023-02-21T16:03:35;11.60;82.40
58447;DHT22;44240;51.840;7.258;2023-02-21T16:06:20;11.60;82.40
58447;DHT22;44240;51.840;7.258;2023-02-21T16:08:59;11.60;82.50
58447;DHT22;44240;51.840;7.258;2023-02-21T16:11:49;11.60;82.60
58447;DHT22;44240;51.840;7.258;2023-02-21T16:17:06;11.60;82.50
58447;DHT22;44240;51.840;7.258;2023-02-21T16:19:33;11.60;82.50
58447;DHT22;44240;51.840;7.258;2023-02-21T16:27:34;11.60;82.30
58447;DHT22;44240;51.840;7.258;2023-02-21T16:30:00;11.50;82.40
58447;DHT22;44240;51.840;7.258;2023-02-21T16:32:25;11.50;82.40
58447;DHT22;44240;51.840;7.258;2023-02-21T16:34:51;11.50;82.30
58447;DHT22;44240;51.840;7.258;2023-02-21T16:37:20;11.50;82.20
58447;DHT22;44240;51.840;7.258;2023-02-21T16:39:47;11.50;82.20
58447;DHT22;44240;51.840;7.258;2023-02-21T16:42:13;11.50;82.20
58447;DHT22;44240;51.840;7.258;2023-02-21T16:44:42;11.50;82.20
58447;DHT22;44240;51.840;7.258;2023-02-21T16:47:15;11.50;82.20
58447;DHT22;44240;51.840;7.258;2023-02-21T16:49:42;11.50;82.20
58447;DHT22;44240;51.840;7.258;2023-02-21T16:52:13;11.50;82.10
58447;DHT22;44240;51.840;7.258;2023-02-21T16:54:39;11.50;82.10
58447;DHT22;44240;51.840;7.258;2023-02-21T16:57:05;11.50;82.10
58447;DHT22;44240;51.840;7.258;2023-02-21T16:59:31;11.50;82.10
58447;DHT22;44240;51.840;7.258;2023-02-21T17:01:56;11.50;82.10
58447;DHT22;44240;51.840;7.258;2023-02-21T17:04:24;11.50;82.00
58447;DHT22;44240;51.840;7.258;2023-02-21T17:07:02;11.50;82.00
58447;DHT22;44240;51.840;7.258;2023-02-21T17:09:29;11.50;82.00
58447;DHT22;44240;51.840;7.258;2023-02-21T17:11:58;11.50;82.00
58447;DHT22;44240;51.840;7.258;2023-02-21T17:14:25;11.50;81.90
58447;DHT22;44240;51.840;7.258;2023-02-21T17:16:50;11.40;81.90
58447;DHT22;44240;51.840;7.258;2023-02-21T17:19:18;11.40;81.90
58447;DHT22;44240;51.840;7.258;2023-02-21T17:21:46;11.40;81.80
58447;DHT22;44240;51.840;7.258;2023-02-21T17:24:13;11.40;81.80
58447;DHT22;44240;51.840;7.258;2023-02-21T17:26:39;11.40;81.80
58447;DHT22;44240;51.840;7.258;2023-02-21T17:29:05;11.40;81.80
58447;DHT22;44240;51.840;7.258;2023-02-21T17:31:30;11.40;81.80
58447;DHT22;44240;51.840;7.258;2023-02-21T17:33:56;11.40;81.80
58447;DHT22;44240;51.840;7.258;2023-02-21T17:36:25;11.40;81.80
58447;DHT22;44240;51.840;7.258;2023-02-21T17:38:51;11.40;81.80
58447;DHT22;44240;51.840;7.258;2023-02-21T17:41:18;11.40;81.80
58447;DHT22;44240;51.840;7.258;2023-02-21T17:43:44;11.40;81.90
58447;DHT22;44240;51.840;7.258;2023-02-21T17:46:11;11.30;81.80
58447;DHT22;44240;51.840;7.258;2023-02-21T17:48:38;11.40;81.90
58447;DHT22;44240;51.840;7.258;2023-02-21T17:51:04;11.30;81.80
58447;DHT22;44240;51.840;7.258;2023-02-21T17:53:30;11.30;81.80
58447;DHT22;44240;51.840;7.258;2023-02-21T17:55:55;11.30;81.90
58447;DHT22;44240;51.840;7.258;2023-02-21T17:58:26;11.30;81.90
58447;DHT22;44240;51.840;7.258;2023-02-21T18:00:52;11.30;81.90
58447;DHT22;44240;51.840;7.258;2023-02-21T18:03:20;11.30;82.90
58447;DHT22;44240;51.840;7.258;2023-02-21T18:05:45;11.30;81.90
58447;DHT22;44240;51.840;7.258;2023-02-21T18:08:11;11.30;81.90
58447;DHT22;44240;51.840;7.258;2023-02-21T18:10:36;11.30;81.90
58447;DHT22;44240;51.840;7.258;2023-02-21T18:13:02;11.30;81.90
58447;DHT22;44240;51.840;7.258;2023-02-21T18:15:27;11.20;81.90
58447;DHT22;44240;51.840;7.258;2023-02-21T18:17:53;11.20;81.90
58447;DHT22;44240;51.840;7.258;2023-02-21T18:20:19;11.20;81.90
58447;DHT22;44240;51.840;7.258;2023-02-21T18:22:45;11.30;81.90
58447;DHT22;44240;51.840;7.258;2023-02-21T18:25:12;11.20;81.90
58447;DHT22;44240;51.840;7.258;2023-02-21T18:27:40;11.20;81.90